sensor_id;sensor_type;location;lat;lon;timestamp;P1;durP1;ratioP1;P2;durP2;ratioP2
24102;SDS011;12278;53.058;9.028;2023-03-16T00:03:24;5.53;;;2.20;;
24102;SDS011;12278;53.058;9.028;2023-03-16T00:07:29;4.63;;;2.53;;
24102;SDS011;12278;53.058;9.028;2023-03-16T00:11:29;5.20;;;2.73;;
24102;SDS011;12278;53.058;9.028;2023-03-16T00:15:30;4.33;;;2.80;;
24102;SDS011;12278;53.058;9.028;2023-03-16T00:19:31;6.40;;;2.73;;
24102;SDS011;12278;53.058;9.028;2023-03-16T00:23:34;5.53;;;2.77;;
24102;SDS011;12278;53.058;9.028;2023-03-16T00:27:35;2.87;;;2.47;;
24102;SDS011;12278;53.058;9.028;2023-03-16T00:31:37;3.30;;;2.53;;
24102;SDS011;12278;53.058;9.028;2023-03-16T00:40:00;7.13;;;2.80;;
24102;SDS011;12278;53.058;9.028;2023-03-16T00:44:01;5.17;;;3.20;;
24102;SDS011;12278;53.058;9.028;2023-03-16T00:48:03;6.00;;;2.80;;
24102;SDS011;12278;53.058;9.028;2023-03-16T00:52:04;4.57;;;3.10;;
24102;SDS011;12278;53.058;9.028;2023-03-16T00:56:06;7.27;;;3.67;;
24102;SDS011;12278;53.058;9.028;2023-03-16T01:00:08;2.97;;;2.47;;
24102;SDS011;12278;53.058;9.028;2023-03-16T01:04:16;4.53;;;3.03;;
24102;SDS011;12278;53.058;9.028;2023-03-16T01:08:18;5.77;;;3.07;;
24102;SDS011;12278;53.058;9.028;2023-03-16T01:12:18;5.83;;;2.70;;
24102;SDS011;12278;53.058;9.028;2023-03-16T01:16:19;4.90;;;3.13;;
24102;SDS011;12278;53.058;9.028;2023-03-16T01:20:22;9.37;;;3.03;;
24102;SDS011;12278;53.058;9.028;2023-03-16T01:24:22;5.60;;;2.70;;
24102;SDS011;12278;53.058;9.028;2023-03-16T01:28:24;4.97;;;3.83;;
24102;SDS011;12278;53.058;9.028;2023-03-16T01:32:26;3.90;;;2.87;;
24102;SDS011;12278;53.058;9.028;2023-03-16T01:36:27;6.07;;;3.03;;
24102;SDS011;12278;53.058;9.028;2023-03-16T01:40:27;4.87;;;2.97;;
24102;SDS011;12278;53.058;9.028;2023-03-16T01:44:28;6.27;;;2.80;;
24102;SDS011;12278;53.058;9.028;2023-03-16T01:48:32;9.07;;;3.07;;
24102;SDS011;12278;53.058;9.028;2023-03-16T01:52:42;6.37;;;3.60;;
24102;SDS011;12278;53.058;9.028;2023-03-16T01:56:48;3.77;;;2.63;;
24102;SDS011;12278;53.058;9.028;2023-03-16T02:00:50;7.10;;;2.97;;
24102;SDS011;12278;53.058;9.028;2023-03-16T02:09:01;5.90;;;2.87;;
24102;SDS011;12278;53.058;9.028;2023-03-16T02:13:02;3.33;;;2.63;;
24102;SDS011;12278;53.058;9.028;2023-03-16T02:17:03;3.47;;;2.90;;
24102;SDS011;12278;53.058;9.028;2023-03-16T02:25:29;7.83;;;4.07;;
24102;SDS011;12278;53.058;9.028;2023-03-16T02:34:12;6.97;;;3.40;;
24102;SDS011;12278;53.058;9.028;2023-03-16T02:38:16;3.20;;;2.90;;
24102;SDS011;12278;53.058;9.028;2023-03-16T02:42:17;3.90;;;2.97;;
24102;SDS011;12278;53.058;9.028;2023-03-16T02:46:24;4.83;;;2.80;;
24102;SDS011;12278;53.058;9.028;2023-03-16T02:50:27;4.73;;;3.10;;
24102;SDS011;12278;53.058;9.028;2023-03-16T02:54:29;6.90;;;2.70;;
24102;SDS011;12278;53.058;9.028;2023-03-16T02:58:29;4.67;;;3.23;;
24102;SDS011;12278;53.058;9.028;2023-03-16T03:02:31;6.20;;;3.37;;
24102;SDS011;12278;53.058;9.028;2023-03-16T03:06:31;8.40;;;3.63;;
24102;SDS011;12278;53.058;9.028;2023-03-16T03:10:32;4.80;;;3.10;;
24102;SDS011;12278;53.058;9.028;2023-03-16T03:14:33;4.83;;;3.10;;
24102;SDS011;12278;53.058;9.028;2023-03-16T03:18:38;6.97;;;3.13;;
24102;SDS011;12278;53.058;9.028;2023-03-16T03:22:38;5.93;;;3.10;;
24102;SDS011;12278;53.058;9.028;2023-03-16T03:26:39;6.43;;;3.47;;
24102;SDS011;12278;53.058;9.028;2023-03-16T03:30:40;6.10;;;3.57;;
24102;SDS011;12278;53.058;9.028;2023-03-16T03:34:40;6.50;;;3.90;;
24102;SDS011;12278;53.058;9.028;2023-03-16T03:38:41;6.07;;;3.33;;
24102;SDS011;12278;53.058;9.028;2023-03-16T03:42:42;6.10;;;3.40;;
24102;SDS011;12278;53.058;9.028;2023-03-16T03:46:43;5.23;;;3.63;;
24102;SDS011;12278;53.058;9.028;2023-03-16T03:50:55;3.47;;;3.00;;
24102;SDS011;12278;53.058;9.028;2023-03-16T03:54:55;6.97;;;3.33;;
24102;SDS011;12278;53.058;9.028;2023-03-16T03:58:56;6.30;;;2.70;;
24102;SDS011;12278;53.058;9.028;2023-03-16T04:02:57;3.83;;;3.33;;
24102;SDS011;12278;53.058;9.028;2023-03-16T04:06:57;4.77;;;2.60;;
24102;SDS011;12278;53.058;9.028;2023-03-16T04:10:59;6.53;;;2.83;;
24102;SDS011;12278;53.058;9.028;2023-03-16T04:15:00;5.87;;;2.90;;
24102;SDS011;12278;53.058;9.028;2023-03-16T04:19:00;4.97;;;2.90;;
24102;SDS011;12278;53.058;9.028;2023-03-16T04:23:01;3.67;;;2.73;;
24102;SDS011;12278;53.058;9.028;2023-03-16T04:27:01;3.00;;;2.23;;
24102;SDS011;12278;53.058;9.028;2023-03-16T04:31:06;2.80;;;2.57;;
24102;SDS011;12278;53.058;9.028;2023-03-16T04:35:08;2.97;;;2.67;;
24102;SDS011;12278;53.058;9.028;2023-03-16T04:39:09;3.27;;;2.50;;
24102;SDS011;12278;53.058;9.028;2023-03-16T04:43:10;3.17;;;2.27;;
24102;SDS011;12278;53.058;9.028;2023-03-16T04:47:11;4.97;;;2.40;;
24102;SDS011;12278;53.058;9.028;2023-03-16T04:51:12;5.23;;;2.83;;
24102;SDS011;12278;53.058;9.028;2023-03-16T04:55:13;6.37;;;3.23;;
24102;SDS011;12278;53.058;9.028;2023-03-16T04:59:13;3.10;;;2.60;;
24102;SDS011;12278;53.058;9.028;2023-03-16T05:03:19;7.00;;;2.97;;
24102;SDS011;12278;53.058;9.028;2023-03-16T05:07:29;3.83;;;2.80;;
24102;SDS011;12278;53.058;9.028;2023-03-16T05:15:49;3.97;;;2.90;;
24102;SDS011;12278;53.058;9.028;2023-03-16T05:19:52;5.20;;;3.00;;
24102;SDS011;12278;53.058;9.028;2023-03-16T05:23:53;4.73;;;2.53;;
24102;SDS011;12278;53.058;9.028;2023-03-16T05:32:17;5.97;;;3.10;;
24102;SDS011;12278;53.058;9.028;2023-03-16T05:36:26;4.47;;;3.10;;
24102;SDS011;12278;53.058;9.028;2023-03-16T05:40:27;15.00;;;4.27;;
24102;SDS011;12278;53.058;9.028;2023-03-16T05:44:27;9.03;;;3.70;;
24102;SDS011;12278;53.058;9.028;2023-03-16T05:48:28;3.47;;;2.97;;
24102;SDS011;12278;53.058;9.028;2023-03-16T05:52:29;4.77;;;2.87;;
24102;SDS011;12278;53.058;9.028;2023-03-16T05:56:30;3.70;;;2.33;;
24102;SDS011;12278;53.058;9.028;2023-03-16T06:00:30;3.10;;;2.60;;
24102;SDS011;12278;53.058;9.028;2023-03-16T06:04:31;4.23;;;2.70;;
24102;SDS011;12278;53.058;9.028;2023-03-16T06:08:32;7.03;;;2.90;;
24102;SDS011;12278;53.058;9.028;2023-03-16T06:12:32;7.50;;;4.50;;
24102;SDS011;12278;53.058;9.028;2023-03-16T06:16:34;8.50;;;3.07;;
24102;SDS011;12278;53.058;9.028;2023-03-16T06:20:35;6.27;;;3.10;;
24102;SDS011;12278;53.058;9.028;2023-03-16T06:24:44;7.80;;;3.43;;
24102;SDS011;12278;53.058;9.028;2023-03-16T06:28:44;10.97;;;4.20;;
24102;SDS011;12278;53.058;9.028;2023-03-16T06:32:45;6.50;;;3.23;;
24102;SDS011;12278;53.058;9.028;2023-03-16T06:36:45;8.33;;;4.40;;
24102;SDS011;12278;53.058;9.028;2023-03-16T06:40:50;14.63;;;4.80;;
24102;SDS011;12278;53.058;9.028;2023-03-16T06:44:51;7.50;;;3.80;;
24102;SDS011;12278;53.058;9.028;2023-03-16T06:48:52;8.47;;;4.07;;
24102;SDS011;12278;53.058;9.028;2023-03-16T06:52:53;13.10;;;3.77;;
24102;SDS011;12278;53.058;9.028;2023-03-16T06:56:53;6.50;;;3.50;;
24102;SDS011;12278;53.058;9.028;2023-03-16T07:00:54;5.97;;;3.17;;
24102;SDS011;12278;53.058;9.028;2023-03-16T07:04:55;7.43;;;3.63;;
24102;SDS011;12278;53.058;9.028;2023-03-16T07:08:55;3.83;;;3.03;;
24102;SDS011;12278;53.058;9.028;2023-03-16T07:12:56;4.43;;;2.97;;
24102;SDS011;12278;53.058;9.028;2023-03-16T07:16:56;10.07;;;3.47;;
24102;SDS011;12278;53.058;9.028;2023-03-16T07:20:57;6.00;;;3.37;;
24102;SDS011;12278;53.058;9.028;2023-03-16T07:24:58;9.30;;;3.63;;
24102;SDS011;12278;53.058;9.028;2023-03-16T07:28:59;8.67;;;3.10;;
24102;SDS011;12278;53.058;9.028;2023-03-16T07:33:00;6.37;;;3.47;;
24102;SDS011;12278;53.058;9.028;2023-03-16T07:37:00;5.13;;;3.13;;
24102;SDS011;12278;53.058;9.028;2023-03-16T07:41:01;7.03;;;2.90;;
24102;SDS011;12278;53.058;9.028;2023-03-16T07:45:03;5.40;;;3.30;;
24102;SDS011;12278;53.058;9.028;2023-03-16T07:49:04;7.50;;;3.30;;
24102;SDS011;12278;53.058;9.028;2023-03-16T07:53:05;6.73;;;4.00;;
24102;SDS011;12278;53.058;9.028;2023-03-16T07:57:06;4.07;;;2.53;;
24102;SDS011;12278;53.058;9.028;2023-03-16T08:01:07;5.13;;;2.90;;
24102;SDS011;12278;53.058;9.028;2023-03-16T08:05:10;6.93;;;2.87;;
24102;SDS011;12278;53.058;9.028;2023-03-16T08:09:11;6.27;;;3.30;;
24102;SDS011;12278;53.058;9.028;2023-03-16T08:13:12;5.20;;;2.83;;
24102;SDS011;12278;53.058;9.028;2023-03-16T08:17:13;4.70;;;3.20;;
24102;SDS011;12278;53.058;9.028;2023-03-16T08:21:14;5.57;;;2.50;;
24102;SDS011;12278;53.058;9.028;2023-03-16T08:25:16;6.63;;;2.87;;
24102;SDS011;12278;53.058;9.028;2023-03-16T08:29:18;4.13;;;2.30;;
24102;SDS011;12278;53.058;9.028;2023-03-16T08:33:20;5.30;;;2.90;;
24102;SDS011;12278;53.058;9.028;2023-03-16T08:37:20;4.20;;;3.10;;
24102;SDS011;12278;53.058;9.028;2023-03-16T08:41:21;7.50;;;3.47;;
24102;SDS011;12278;53.058;9.028;2023-03-16T08:45:25;4.47;;;3.93;;
24102;SDS011;12278;53.058;9.028;2023-03-16T08:49:26;3.60;;;2.50;;
24102;SDS011;12278;53.058;9.028;2023-03-16T08:53:27;3.73;;;2.87;;
24102;SDS011;12278;53.058;9.028;2023-03-16T08:57:29;3.93;;;2.30;;
24102;SDS011;12278;53.058;9.028;2023-03-16T09:01:33;4.63;;;2.80;;
24102;SDS011;12278;53.058;9.028;2023-03-16T09:05:34;3.50;;;2.20;;
24102;SDS011;12278;53.058;9.028;2023-03-16T09:09:34;4.77;;;2.70;;
24102;SDS011;12278;53.058;9.028;2023-03-16T09:13:36;5.30;;;2.30;;
24102;SDS011;12278;53.058;9.028;2023-03-16T09:17:37;4.20;;;2.27;;
24102;SDS011;12278;53.058;9.028;2023-03-16T09:21:40;4.33;;;2.43;;
24102;SDS011;12278;53.058;9.028;2023-03-16T09:25:41;5.33;;;2.80;;
24102;SDS011;12278;53.058;9.028;2023-03-16T09:29:42;3.13;;;2.57;;
24102;SDS011;12278;53.058;9.028;2023-03-16T09:33:42;5.83;;;2.80;;
24102;SDS011;12278;53.058;9.028;2023-03-16T09:37:43;2.63;;;1.97;;
24102;SDS011;12278;53.058;9.028;2023-03-16T09:41:49;4.77;;;1.90;;
24102;SDS011;12278;53.058;9.028;2023-03-16T09:46:14;4.30;;;2.43;;
24102;SDS011;12278;53.058;9.028;2023-03-16T09:50:27;4.23;;;1.70;;
24102;SDS011;12278;53.058;9.028;2023-03-16T09:54:38;2.50;;;1.97;;
24102;SDS011;12278;53.058;9.028;2023-03-16T10:08:15;2.58;;;1.73;;
24102;SDS011;12278;53.058;9.028;2023-03-16T10:12:25;1.93;;;1.80;;
24102;SDS011;12278;53.058;9.028;2023-03-16T10:20:37;5.20;;;1.73;;
24102;SDS011;12278;53.058;9.028;2023-03-16T10:24:43;3.38;;;1.50;;
24102;SDS011;12278;53.058;9.028;2023-03-16T10:28:47;2.65;;;1.70;;
24102;SDS011;12278;53.058;9.028;2023-03-16T10:32:48;2.80;;;1.75;;
24102;SDS011;12278;53.058;9.028;2023-03-16T10:36:49;4.20;;;1.80;;
24102;SDS011;12278;53.058;9.028;2023-03-16T10:40:53;4.07;;;2.00;;
24102;SDS011;12278;53.058;9.028;2023-03-16T10:44:57;2.38;;;2.15;;
24102;SDS011;12278;53.058;9.028;2023-03-16T10:48:59;2.53;;;1.50;;
24102;SDS011;12278;53.058;9.028;2023-03-16T10:53:00;3.95;;;1.60;;
24102;SDS011;12278;53.058;9.028;2023-03-16T11:01:25;3.08;;;1.92;;
24102;SDS011;12278;53.058;9.028;2023-03-16T11:05:31;2.05;;;1.73;;
24102;SDS011;12278;53.058;9.028;2023-03-16T11:09:33;3.70;;;1.83;;
24102;SDS011;12278;53.058;9.028;2023-03-16T11:13:36;5.53;;;2.55;;
24102;SDS011;12278;53.058;9.028;2023-03-16T11:17:42;3.33;;;1.90;;
24102;SDS011;12278;53.058;9.028;2023-03-16T11:21:51;2.97;;;1.92;;
24102;SDS011;12278;53.058;9.028;2023-03-16T11:26:13;3.33;;;1.60;;
24102;SDS011;12278;53.058;9.028;2023-03-16T11:34:40;2.88;;;1.48;;
24102;SDS011;12278;53.058;9.028;2023-03-16T11:43:16;5.63;;;2.55;;
24102;SDS011;12278;53.058;9.028;2023-03-16T11:56:45;2.17;;;1.80;;
24102;SDS011;12278;53.058;9.028;2023-03-16T12:01:10;2.25;;;2.05;;
24102;SDS011;12278;53.058;9.028;2023-03-16T12:05:30;2.47;;;1.40;;
24102;SDS011;12278;53.058;9.028;2023-03-16T12:22:24;3.03;;;1.52;;
24102;SDS011;12278;53.058;9.028;2023-03-16T12:26:38;3.10;;;1.40;;
24102;SDS011;12278;53.058;9.028;2023-03-16T12:48:46;4.00;;;1.58;;
24102;SDS011;12278;53.058;9.028;2023-03-16T12:52:49;2.80;;;1.70;;
24102;SDS011;12278;53.058;9.028;2023-03-16T12:56:52;2.45;;;1.65;;
24102;SDS011;12278;53.058;9.028;2023-03-16T13:01:10;1.40;;;1.20;;
24102;SDS011;12278;53.058;9.028;2023-03-16T13:05:14;1.45;;;1.20;;
24102;SDS011;12278;53.058;9.028;2023-03-16T13:09:19;2.42;;;1.52;;
24102;SDS011;12278;53.058;9.028;2023-03-16T13:13:24;3.55;;;1.40;;
24102;SDS011;12278;53.058;9.028;2023-03-16T13:17:27;3.38;;;1.20;;
24102;SDS011;12278;53.058;9.028;2023-03-16T13:25:38;1.33;;;1.23;;
24102;SDS011;12278;53.058;9.028;2023-03-16T13:29:50;1.85;;;1.50;;
24102;SDS011;12278;53.058;9.028;2023-03-16T13:33:53;3.30;;;1.80;;
24102;SDS011;12278;53.058;9.028;2023-03-16T13:38:01;2.90;;;1.50;;
24102;SDS011;12278;53.058;9.028;2023-03-16T13:46:12;2.10;;;1.48;;
24102;SDS011;12278;53.058;9.028;2023-03-16T13:50:30;2.70;;;1.90;;
24102;SDS011;12278;53.058;9.028;2023-03-16T13:54:32;1.60;;;1.45;;
24102;SDS011;12278;53.058;9.028;2023-03-16T13:58:36;1.95;;;1.50;;
24102;SDS011;12278;53.058;9.028;2023-03-16T14:02:42;2.22;;;2.00;;
24102;SDS011;12278;53.058;9.028;2023-03-16T14:06:55;2.17;;;1.77;;
24102;SDS011;12278;53.058;9.028;2023-03-16T14:11:13;2.97;;;2.22;;
24102;SDS011;12278;53.058;9.028;2023-03-16T14:15:14;3.65;;;1.95;;
24102;SDS011;12278;53.058;9.028;2023-03-16T14:19:28;3.17;;;2.58;;
24102;SDS011;12278;53.058;9.028;2023-03-16T14:23:44;4.80;;;2.25;;
24102;SDS011;12278;53.058;9.028;2023-03-16T14:27:47;1.95;;;1.38;;
24102;SDS011;12278;53.058;9.028;2023-03-16T14:31:56;4.78;;;1.80;;
24102;SDS011;12278;53.058;9.028;2023-03-16T14:35:58;1.48;;;1.17;;
24102;SDS011;12278;53.058;9.028;2023-03-16T14:44:28;4.18;;;2.22;;
24102;SDS011;12278;53.058;9.028;2023-03-16T14:48:32;3.63;;;2.10;;
24102;SDS011;12278;53.058;9.028;2023-03-16T14:52:34;1.90;;;1.70;;
24102;SDS011;12278;53.058;9.028;2023-03-16T14:56:36;3.25;;;2.00;;
24102;SDS011;12278;53.058;9.028;2023-03-16T15:00:37;2.22;;;1.70;;
24102;SDS011;12278;53.058;9.028;2023-03-16T15:04:40;2.20;;;1.83;;
24102;SDS011;12278;53.058;9.028;2023-03-16T15:08:42;1.60;;;1.33;;
24102;SDS011;12278;53.058;9.028;2023-03-16T15:12:45;1.58;;;1.48;;
24102;SDS011;12278;53.058;9.028;2023-03-16T15:16:52;2.10;;;1.52;;
24102;SDS011;12278;53.058;9.028;2023-03-16T15:20:53;3.88;;;1.92;;
24102;SDS011;12278;53.058;9.028;2023-03-16T15:24:54;1.88;;;1.52;;
24102;SDS011;12278;53.058;9.028;2023-03-16T15:28:55;2.20;;;1.48;;
24102;SDS011;12278;53.058;9.028;2023-03-16T15:32:57;3.10;;;1.20;;
24102;SDS011;12278;53.058;9.028;2023-03-16T15:36:58;2.03;;;1.52;;
24102;SDS011;12278;53.058;9.028;2023-03-16T15:41:09;2.40;;;1.20;;
24102;SDS011;12278;53.058;9.028;2023-03-16T15:45:14;2.55;;;1.55;;
24102;SDS011;12278;53.058;9.028;2023-03-16T15:49:32;2.63;;;1.80;;
24102;SDS011;12278;53.058;9.028;2023-03-16T15:57:39;3.67;;;1.30;;
24102;SDS011;12278;53.058;9.028;2023-03-16T16:05:51;1.58;;;1.25;;
24102;SDS011;12278;53.058;9.028;2023-03-16T16:09:55;1.95;;;1.58;;
24102;SDS011;12278;53.058;9.028;2023-03-16T16:13:56;2.92;;;1.38;;
24102;SDS011;12278;53.058;9.028;2023-03-16T16:17:57;5.00;;;1.50;;
24102;SDS011;12278;53.058;9.028;2023-03-16T16:21:57;2.28;;;1.30;;
24102;SDS011;12278;53.058;9.028;2023-03-16T16:25:59;2.83;;;1.30;;
24102;SDS011;12278;53.058;9.028;2023-03-16T16:30:13;1.17;;;1.08;;
24102;SDS011;12278;53.058;9.028;2023-03-16T16:34:21;1.63;;;1.08;;
24102;SDS011;12278;53.058;9.028;2023-03-16T16:38:26;1.90;;;1.10;;
24102;SDS011;12278;53.058;9.028;2023-03-16T16:42:28;2.43;;;1.27;;
24102;SDS011;12278;53.058;9.028;2023-03-16T16:46:28;2.03;;;1.25;;
24102;SDS011;12278;53.058;9.028;2023-03-16T16:50:32;1.73;;;1.33;;
24102;SDS011;12278;53.058;9.028;2023-03-16T16:54:32;3.90;;;1.60;;
24102;SDS011;12278;53.058;9.028;2023-03-16T16:58:35;4.00;;;1.50;;
24102;SDS011;12278;53.058;9.028;2023-03-16T17:02:43;2.63;;;1.47;;
24102;SDS011;12278;53.058;9.028;2023-03-16T17:06:46;2.63;;;1.30;;
24102;SDS011;12278;53.058;9.028;2023-03-16T17:10:46;2.67;;;1.90;;
24102;SDS011;12278;53.058;9.028;2023-03-16T17:14:48;1.90;;;1.17;;
24102;SDS011;12278;53.058;9.028;2023-03-16T17:18:49;2.30;;;1.40;;
24102;SDS011;12278;53.058;9.028;2023-03-16T17:22:50;1.67;;;1.40;;
24102;SDS011;12278;53.058;9.028;2023-03-16T17:26:54;3.37;;;1.53;;
24102;SDS011;12278;53.058;9.028;2023-03-16T17:30:57;1.40;;;1.23;;
24102;SDS011;12278;53.058;9.028;2023-03-16T17:34:58;2.57;;;1.60;;
24102;SDS011;12278;53.058;9.028;2023-03-16T17:38:58;3.27;;;2.23;;
24102;SDS011;12278;53.058;9.028;2023-03-16T17:43:01;1.40;;;1.30;;
24102;SDS011;12278;53.058;9.028;2023-03-16T17:47:01;1.47;;;1.37;;
24102;SDS011;12278;53.058;9.028;2023-03-16T17:51:02;1.70;;;1.40;;
24102;SDS011;12278;53.058;9.028;2023-03-16T17:55:03;4.47;;;2.20;;
24102;SDS011;12278;53.058;9.028;2023-03-16T17:59:14;2.00;;;1.40;;
24102;SDS011;12278;53.058;9.028;2023-03-16T18:03:17;2.33;;;1.77;;
24102;SDS011;12278;53.058;9.028;2023-03-16T18:07:18;2.63;;;1.50;;
24102;SDS011;12278;53.058;9.028;2023-03-16T18:11:19;2.60;;;1.60;;
24102;SDS011;12278;53.058;9.028;2023-03-16T18:15:21;1.80;;;1.50;;
24102;SDS011;12278;53.058;9.028;2023-03-16T18:19:24;5.10;;;1.90;;
24102;SDS011;12278;53.058;9.028;2023-03-16T18:27:29;2.97;;;1.97;;
24102;SDS011;12278;53.058;9.028;2023-03-16T18:31:30;2.17;;;1.53;;
24102;SDS011;12278;53.058;9.028;2023-03-16T18:35:31;1.63;;;1.50;;
24102;SDS011;12278;53.058;9.028;2023-03-16T18:39:34;2.30;;;1.47;;
24102;SDS011;12278;53.058;9.028;2023-03-16T18:43:35;3.23;;;1.60;;
24102;SDS011;12278;53.058;9.028;2023-03-16T18:47:35;2.20;;;1.60;;
24102;SDS011;12278;53.058;9.028;2023-03-16T18:51:40;1.90;;;1.40;;
24102;SDS011;12278;53.058;9.028;2023-03-16T18:55:44;1.20;;;1.10;;
24102;SDS011;12278;53.058;9.028;2023-03-16T18:59:57;4.00;;;2.20;;
24102;SDS011;12278;53.058;9.028;2023-03-16T19:03:58;4.57;;;1.90;;
24102;SDS011;12278;53.058;9.028;2023-03-16T19:08:00;3.03;;;1.70;;
24102;SDS011;12278;53.058;9.028;2023-03-16T19:16:17;1.80;;;1.50;;
24102;SDS011;12278;53.058;9.028;2023-03-16T19:20:22;1.70;;;1.60;;
24102;SDS011;12278;53.058;9.028;2023-03-16T19:24:26;2.90;;;1.53;;
24102;SDS011;12278;53.058;9.028;2023-03-16T19:28:30;3.27;;;1.43;;
24102;SDS011;12278;53.058;9.028;2023-03-16T19:32:35;2.53;;;2.00;;
24102;SDS011;12278;53.058;9.028;2023-03-16T19:45:31;1.93;;;1.70;;
24102;SDS011;12278;53.058;9.028;2023-03-16T19:49:32;1.93;;;1.57;;
24102;SDS011;12278;53.058;9.028;2023-03-16T19:53:33;2.93;;;1.70;;
24102;SDS011;12278;53.058;9.028;2023-03-16T20:01:55;3.10;;;1.80;;
24102;SDS011;12278;53.058;9.028;2023-03-16T20:06:08;3.63;;;1.70;;
24102;SDS011;12278;53.058;9.028;2023-03-16T20:10:24;1.70;;;1.60;;
24102;SDS011;12278;53.058;9.028;2023-03-16T20:14:34;2.23;;;1.40;;
24102;SDS011;12278;53.058;9.028;2023-03-16T20:18:35;2.60;;;1.77;;
24102;SDS011;12278;53.058;9.028;2023-03-16T20:22:36;2.10;;;1.73;;
24102;SDS011;12278;53.058;9.028;2023-03-16T20:26:45;2.00;;;1.67;;
24102;SDS011;12278;53.058;9.028;2023-03-16T20:30:47;3.33;;;1.73;;
24102;SDS011;12278;53.058;9.028;2023-03-16T20:34:48;3.43;;;2.00;;
24102;SDS011;12278;53.058;9.028;2023-03-16T20:38:50;3.07;;;1.87;;
24102;SDS011;12278;53.058;9.028;2023-03-16T20:42:57;3.17;;;1.70;;
24102;SDS011;12278;53.058;9.028;2023-03-16T20:46:58;2.17;;;1.73;;
24102;SDS011;12278;53.058;9.028;2023-03-16T20:50:59;2.73;;;1.73;;
24102;SDS011;12278;53.058;9.028;2023-03-16T20:55:00;2.60;;;1.80;;
24102;SDS011;12278;53.058;9.028;2023-03-16T20:59:01;2.83;;;1.83;;
24102;SDS011;12278;53.058;9.028;2023-03-16T21:03:09;3.20;;;1.73;;
24102;SDS011;12278;53.058;9.028;2023-03-16T21:07:15;3.70;;;2.20;;
24102;SDS011;12278;53.058;9.028;2023-03-16T21:11:18;2.93;;;1.80;;
24102;SDS011;12278;53.058;9.028;2023-03-16T21:19:34;2.73;;;1.83;;
24102;SDS011;12278;53.058;9.028;2023-03-16T21:23:34;3.77;;;1.80;;
24102;SDS011;12278;53.058;9.028;2023-03-16T21:27:54;2.27;;;1.90;;
24102;SDS011;12278;53.058;9.028;2023-03-16T21:31:55;1.80;;;1.60;;
24102;SDS011;12278;53.058;9.028;2023-03-16T21:40:19;2.97;;;1.70;;
24102;SDS011;12278;53.058;9.028;2023-03-16T21:44:23;4.70;;;2.30;;
24102;SDS011;12278;53.058;9.028;2023-03-16T21:48:34;3.13;;;2.07;;
24102;SDS011;12278;53.058;9.028;2023-03-16T21:52:38;3.30;;;1.90;;
24102;SDS011;12278;53.058;9.028;2023-03-16T21:56:42;3.17;;;1.80;;
24102;SDS011;12278;53.058;9.028;2023-03-16T22:00:44;4.43;;;2.27;;
24102;SDS011;12278;53.058;9.028;2023-03-16T22:04:46;2.47;;;1.47;;
24102;SDS011;12278;53.058;9.028;2023-03-16T22:08:47;2.47;;;1.83;;
24102;SDS011;12278;53.058;9.028;2023-03-16T22:12:50;2.67;;;1.90;;
24102;SDS011;12278;53.058;9.028;2023-03-16T22:25:30;2.13;;;1.57;;
24102;SDS011;12278;53.058;9.028;2023-03-16T22:29:31;2.17;;;1.80;;
24102;SDS011;12278;53.058;9.028;2023-03-16T22:33:35;2.33;;;1.80;;
24102;SDS011;12278;53.058;9.028;2023-03-16T22:37:39;2.30;;;2.10;;
24102;SDS011;12278;53.058;9.028;2023-03-16T22:41:40;3.47;;;2.00;;
24102;SDS011;12278;53.058;9.028;2023-03-16T22:45:41;2.53;;;1.70;;
24102;SDS011;12278;53.058;9.028;2023-03-16T22:49:41;3.80;;;1.70;;
24102;SDS011;12278;53.058;9.028;2023-03-16T22:53:43;2.40;;;2.17;;
24102;SDS011;12278;53.058;9.028;2023-03-16T22:57:46;2.10;;;1.70;;
24102;SDS011;12278;53.058;9.028;2023-03-16T23:01:57;3.80;;;2.20;;
24102;SDS011;12278;53.058;9.028;2023-03-16T23:05:58;3.50;;;2.07;;
24102;SDS011;12278;53.058;9.028;2023-03-16T23:09:59;3.77;;;2.00;;
24102;SDS011;12278;53.058;9.028;2023-03-16T23:14:00;1.90;;;1.63;;
24102;SDS011;12278;53.058;9.028;2023-03-16T23:18:01;2.00;;;1.70;;
24102;SDS011;12278;53.058;9.028;2023-03-16T23:22:02;2.57;;;1.80;;
24102;SDS011;12278;53.058;9.028;2023-03-16T23:26:09;5.00;;;2.10;;
24102;SDS011;12278;53.058;9.028;2023-03-16T23:30:23;2.67;;;1.87;;
24102;SDS011;12278;53.058;9.028;2023-03-16T23:34:25;4.67;;;1.73;;
24102;SDS011;12278;53.058;9.028;2023-03-16T23:38:30;2.50;;;2.07;;
24102;SDS011;12278;53.058;9.028;2023-03-16T23:42:31;1.97;;;1.53;;
24102;SDS011;12278;53.058;9.028;2023-03-16T23:46:34;3.97;;;2.50;;
24102;SDS011;12278;53.058;9.028;2023-03-16T23:50:34;2.40;;;2.20;;
24102;SDS011;12278;53.058;9.028;2023-03-16T23:54:36;2.20;;;2.00;;
24102;SDS011;12278;53.058;9.028;2023-03-16T23:58:37;2.60;;;2.00;;
